createdAt,value
2018-08-20T00:00:55.592Z,19.40
2018-08-20T00:03:24.326Z,19.20
2018-08-20T00:05:54.537Z,19.20
2018-08-20T00:08:24.683Z,19.20
2018-08-20T00:10:56.524Z,19.10
2018-08-20T00:13:25.929Z,19.10
2018-08-20T00:15:55.414Z,19.10
2018-08-20T00:18:29.325Z,19.20
2018-08-20T00:20:58.237Z,19.20
2018-08-20T00:23:26.969Z,19.20
2018-08-20T00:25:58.113Z,19.20
2018-08-20T00:28:28.107Z,19.10
2018-08-20T00:30:56.799Z,19.10
2018-08-20T00:33:25.583Z,19.10
2018-08-20T00:35:54.429Z,19.10
2018-08-20T00:38:23.306Z,19.10
2018-08-20T00:40:52.016Z,19.10
2018-08-20T00:43:20.645Z,19.00
2018-08-20T00:45:49.291Z,19.10
2018-08-20T00:48:18.087Z,19.10
2018-08-20T00:50:46.936Z,19.10
2018-08-20T00:53:15.953Z,19.00
2018-08-20T00:55:44.763Z,19.00
2018-08-20T00:58:13.479Z,19.00
2018-08-20T01:00:42.247Z,19.00
2018-08-20T01:03:10.951Z,19.10
2018-08-20T01:05:39.643Z,19.00
2018-08-20T01:08:08.350Z,19.00
2018-08-20T01:10:37.053Z,19.00
2018-08-20T01:13:05.741Z,19.00
2018-08-20T01:15:34.933Z,19.00
2018-08-20T01:18:03.695Z,19.00
2018-08-20T01:20:33.417Z,19.00
2018-08-20T01:23:02.259Z,19.00
2018-08-20T01:25:30.987Z,18.90
2018-08-20T01:27:59.650Z,18.90
2018-08-20T01:30:28.359Z,18.90
2018-08-20T01:33:28.261Z,18.90
2018-08-20T01:35:57.083Z,18.90
2018-08-20T01:38:25.879Z,18.90
2018-08-20T01:40:54.603Z,18.90
2018-08-20T01:43:23.308Z,18.90
2018-08-20T01:45:52.113Z,18.80
2018-08-20T01:48:20.858Z,18.90
2018-08-20T01:50:49.542Z,18.80
2018-08-20T01:53:18.378Z,18.80
2018-08-20T01:55:47.008Z,18.90
2018-08-20T01:58:15.654Z,18.90
2018-08-20T02:00:44.353Z,18.90
2018-08-20T02:03:13.093Z,18.90
2018-08-20T02:05:41.783Z,18.90
2018-08-20T02:08:10.544Z,18.90
2018-08-20T02:10:39.245Z,18.90
2018-08-20T02:13:08.131Z,18.90
2018-08-20T02:15:38.028Z,18.90
2018-08-20T02:18:08.327Z,18.90
2018-08-20T02:20:36.961Z,18.90
2018-08-20T02:23:05.937Z,18.90
2018-08-20T02:25:34.626Z,18.90
2018-08-20T02:28:03.548Z,18.90
2018-08-20T02:30:32.283Z,18.90
2018-08-20T02:33:00.963Z,18.80
2018-08-20T02:35:29.854Z,18.80
2018-08-20T02:37:58.782Z,18.80
2018-08-20T02:40:27.643Z,18.80
2018-08-20T02:42:56.440Z,18.90
2018-08-20T02:45:25.115Z,18.80
2018-08-20T02:47:53.816Z,18.80
2018-08-20T02:50:22.487Z,18.80
2018-08-20T02:52:51.150Z,18.80
2018-08-20T02:55:20.013Z,18.80
2018-08-20T02:57:48.663Z,18.80
2018-08-20T03:00:17.387Z,18.80
2018-08-20T03:02:46.070Z,18.80
2018-08-20T03:05:14.835Z,18.80
2018-08-20T03:07:43.665Z,18.80
2018-08-20T03:10:13.354Z,18.80
2018-08-20T03:12:42.496Z,18.80
2018-08-20T03:15:11.736Z,18.80
2018-08-20T03:17:40.502Z,18.80
2018-08-20T03:20:09.229Z,18.80
2018-08-20T03:22:37.899Z,18.80
2018-08-20T03:25:07.011Z,18.80
2018-08-20T03:27:36.319Z,18.80
2018-08-20T03:30:06.427Z,18.80
2018-08-20T03:32:35.485Z,18.80
2018-08-20T03:35:04.699Z,18.80
2018-08-20T03:37:33.347Z,18.80
2018-08-20T03:40:02.060Z,18.80
2018-08-20T03:42:30.731Z,18.80
2018-08-20T03:44:59.433Z,18.80
2018-08-20T03:47:28.434Z,18.80
2018-08-20T03:49:57.391Z,18.80
2018-08-20T03:52:26.287Z,18.80
2018-08-20T03:54:54.998Z,18.80
2018-08-20T03:57:23.613Z,18.80
2018-08-20T03:59:52.599Z,18.80
2018-08-20T04:02:21.502Z,18.80
2018-08-20T04:04:50.265Z,18.80
2018-08-20T04:07:18.956Z,18.80
2018-08-20T04:09:47.666Z,18.80
2018-08-20T04:12:16.311Z,18.90
2018-08-20T04:14:45.131Z,18.90
2018-08-20T04:17:13.777Z,18.80
2018-08-20T04:19:42.430Z,18.80
2018-08-20T04:22:11.331Z,18.80
2018-08-20T04:24:40.148Z,18.80
2018-08-20T04:27:08.881Z,18.80
2018-08-20T04:29:37.532Z,18.70
2018-08-20T04:32:06.721Z,18.80
2018-08-20T04:34:35.844Z,18.70
2018-08-20T04:37:04.853Z,18.70
2018-08-20T04:39:33.552Z,18.70
2018-08-20T04:42:02.447Z,18.70
2018-08-20T04:44:31.627Z,18.70
2018-08-20T04:47:00.474Z,18.70
2018-08-20T04:49:29.139Z,18.70
2018-08-20T04:51:57.866Z,18.70
2018-08-20T04:54:26.558Z,18.70
2018-08-20T04:56:55.268Z,18.70
2018-08-20T04:59:24.215Z,18.70
2018-08-20T05:01:52.864Z,18.70
2018-08-20T05:04:21.524Z,18.70
2018-08-20T05:06:50.308Z,18.70
2018-08-20T05:09:19.038Z,18.70
2018-08-20T05:11:48.095Z,18.70
2018-08-20T05:14:16.812Z,18.70
2018-08-20T05:16:45.492Z,18.70
2018-08-20T05:19:14.113Z,18.70
2018-08-20T05:21:42.817Z,18.70
2018-08-20T05:24:11.493Z,18.70
2018-08-20T05:26:40.576Z,18.70
2018-08-20T05:29:09.279Z,18.70
2018-08-20T05:31:38.237Z,18.70
2018-08-20T05:34:07.212Z,18.70
2018-08-20T05:36:36.150Z,18.70
2018-08-20T05:39:07.048Z,18.80
2018-08-20T05:41:35.898Z,18.80
2018-08-20T05:44:04.510Z,18.70
2018-08-20T05:46:33.145Z,18.70
2018-08-20T05:49:01.834Z,18.80
2018-08-20T05:51:30.492Z,18.70
2018-08-20T05:53:59.198Z,18.80
2018-08-20T05:56:27.929Z,18.80
2018-08-20T05:58:56.656Z,18.80
2018-08-20T06:01:25.512Z,18.80
2018-08-20T06:03:54.209Z,18.80
2018-08-20T06:06:22.888Z,18.80
2018-08-20T06:08:51.762Z,18.80
2018-08-20T06:11:20.514Z,18.90
2018-08-20T06:13:49.188Z,18.90
2018-08-20T06:16:17.891Z,18.90
2018-08-20T06:18:46.674Z,18.90
2018-08-20T06:21:15.461Z,19.00
2018-08-20T06:23:44.307Z,18.90
2018-08-20T06:26:13.007Z,18.90
2018-08-20T06:28:41.723Z,19.00
2018-08-20T06:31:10.390Z,18.90
2018-08-20T06:33:39.101Z,18.90
2018-08-20T06:36:07.918Z,18.80
2018-08-20T06:38:36.549Z,18.90
2018-08-20T06:41:05.338Z,18.80
2018-08-20T06:43:33.983Z,18.70
2018-08-20T06:46:02.673Z,18.70
2018-08-20T06:48:32.099Z,18.70
2018-08-20T06:51:00.739Z,18.80
2018-08-20T06:53:29.542Z,18.80
2018-08-20T06:55:59.283Z,18.80
2018-08-20T06:58:28.761Z,18.80
2018-08-20T07:00:57.658Z,18.80
2018-08-20T07:03:26.409Z,18.80
2018-08-20T07:05:55.334Z,18.80
2018-08-20T07:08:24.036Z,18.80
2018-08-20T07:10:52.921Z,18.90
2018-08-20T07:13:29.718Z,18.90
2018-08-20T07:15:58.403Z,18.90
2018-08-20T07:18:27.322Z,18.90
2018-08-20T07:20:56.136Z,19.00
2018-08-20T07:23:24.953Z,19.00
2018-08-20T07:25:53.760Z,19.00
2018-08-20T07:28:22.614Z,19.10
2018-08-20T07:30:51.450Z,19.10
2018-08-20T07:33:20.318Z,19.10
2018-08-20T07:35:49.284Z,19.10
2018-08-20T07:38:18.150Z,19.20
2018-08-20T07:40:46.932Z,19.20
2018-08-20T07:43:15.636Z,19.20
2018-08-20T07:45:44.262Z,19.20
2018-08-20T07:48:12.993Z,19.20
2018-08-20T07:50:41.609Z,19.30
2018-08-20T07:53:10.339Z,19.30
2018-08-20T07:55:39.156Z,19.40
2018-08-20T07:58:08.882Z,19.40
2018-08-20T08:00:37.650Z,19.40
2018-08-20T08:03:06.318Z,19.40
2018-08-20T08:05:34.996Z,19.40
2018-08-20T08:08:03.699Z,19.50
2018-08-20T08:10:32.442Z,19.60
2018-08-20T08:13:01.155Z,19.60
2018-08-20T08:15:29.946Z,19.60
2018-08-20T08:17:58.706Z,19.60
2018-08-20T08:20:27.414Z,19.70
2018-08-20T08:22:56.223Z,19.80
2018-08-20T08:25:24.869Z,19.80
2018-08-20T08:27:53.682Z,19.80
2018-08-20T08:30:22.545Z,19.90
2018-08-20T08:32:51.407Z,19.90
2018-08-20T08:35:20.115Z,20.00
2018-08-20T08:37:48.878Z,20.00
2018-08-20T08:40:17.666Z,20.10
2018-08-20T08:42:46.345Z,20.10
2018-08-20T08:45:17.727Z,20.00
2018-08-20T08:47:53.045Z,20.00
2018-08-20T08:50:21.676Z,19.90
2018-08-20T08:52:50.332Z,20.00
2018-08-20T08:55:19.106Z,20.00
2018-08-20T08:57:47.800Z,20.00
2018-08-20T09:00:18.690Z,20.10
2018-08-20T09:02:47.506Z,20.20
2018-08-20T09:05:16.432Z,20.20
2018-08-20T09:07:45.212Z,20.30
2018-08-20T09:10:14.106Z,20.30
2018-08-20T09:12:42.867Z,20.30
2018-08-20T09:15:15.851Z,20.30
2018-08-20T09:17:44.952Z,20.30
2018-08-20T09:20:15.047Z,20.40
2018-08-20T09:22:43.924Z,20.50
2018-08-20T09:25:13.453Z,20.50
2018-08-20T09:27:43.072Z,20.60
2018-08-20T09:30:15.232Z,20.50
2018-08-20T09:32:44.536Z,20.50
2018-08-20T09:35:13.331Z,20.40
2018-08-20T09:37:42.136Z,20.30
2018-08-20T09:40:11.351Z,20.30
2018-08-20T09:42:40.842Z,20.20
2018-08-20T09:45:09.834Z,20.10
2018-08-20T09:47:39.632Z,19.90
2018-08-20T09:50:10.503Z,19.70
2018-08-20T09:52:39.260Z,19.60
2018-08-20T09:55:08.959Z,19.50
2018-08-20T09:57:37.676Z,19.50
2018-08-20T10:00:09.913Z,19.50
2018-08-20T10:02:38.632Z,19.40
2018-08-20T10:05:07.502Z,19.40
2018-08-20T10:07:36.249Z,19.40
2018-08-20T10:10:05.978Z,19.40
2018-08-20T10:12:34.628Z,19.50
2018-08-20T10:15:03.455Z,19.50
2018-08-20T10:17:32.167Z,19.50
2018-08-20T10:20:00.933Z,19.70
2018-08-20T10:22:29.613Z,19.70
2018-08-20T10:24:58.423Z,19.80
2018-08-20T10:27:27.078Z,19.90
2018-08-20T10:29:55.783Z,19.90
2018-08-20T10:32:24.521Z,19.90
2018-08-20T10:34:53.187Z,20.00
2018-08-20T10:37:22.141Z,20.10
2018-08-20T10:39:51.068Z,20.20
2018-08-20T10:42:19.990Z,20.30
2018-08-20T10:44:52.721Z,20.30
2018-08-20T10:47:21.859Z,20.40
2018-08-20T10:49:56.885Z,20.30
2018-08-20T10:52:25.656Z,20.30
2018-08-20T10:54:54.362Z,20.20
2018-08-20T10:57:23.235Z,20.10
2018-08-20T10:59:51.936Z,20.10
2018-08-20T11:02:20.645Z,20.00
2018-08-20T11:04:53.549Z,20.00
2018-08-20T11:07:22.414Z,20.00
2018-08-20T11:09:51.040Z,20.10
2018-08-20T11:12:19.945Z,20.10
2018-08-20T11:14:48.711Z,20.00
2018-08-20T11:17:17.490Z,20.10
2018-08-20T11:19:46.195Z,20.10
2018-08-20T11:22:14.933Z,20.20
2018-08-20T11:24:43.673Z,20.30
2018-08-20T11:27:12.399Z,20.40
2018-08-20T11:29:41.115Z,20.40
2018-08-20T11:32:10.091Z,20.40
2018-08-20T11:34:39.067Z,20.40
2018-08-20T11:37:07.979Z,20.40
2018-08-20T11:39:36.661Z,20.40
2018-08-20T11:42:05.799Z,20.40
2018-08-20T11:44:36.757Z,20.40
2018-08-20T11:47:05.473Z,20.30
2018-08-20T11:49:34.175Z,20.30
2018-08-20T11:52:02.887Z,20.30
2018-08-20T11:54:31.701Z,20.30
2018-08-20T11:57:00.472Z,20.30
2018-08-20T11:59:29.112Z,20.30
2018-08-20T12:01:58.084Z,20.40
2018-08-20T12:04:26.990Z,20.50
2018-08-20T12:06:55.740Z,20.40
2018-08-20T12:09:24.807Z,20.40
2018-08-20T12:11:53.542Z,20.40
2018-08-20T12:14:22.464Z,20.40
2018-08-20T12:16:51.449Z,20.40
2018-08-20T12:19:20.164Z,20.40
2018-08-20T12:21:48.826Z,20.40
2018-08-20T12:24:17.528Z,20.40
2018-08-20T12:26:46.412Z,20.40
2018-08-20T12:29:15.102Z,20.30
2018-08-20T12:31:43.820Z,20.30
2018-08-20T12:34:12.569Z,20.30
2018-08-20T12:36:41.468Z,20.30
2018-08-20T12:39:10.196Z,20.30
2018-08-20T12:41:38.992Z,20.30
2018-08-20T12:44:07.850Z,20.30
2018-08-20T12:46:36.553Z,20.40
2018-08-20T12:49:05.466Z,20.40
2018-08-20T12:51:34.432Z,20.30
2018-08-20T12:54:03.231Z,20.30
2018-08-20T12:56:31.896Z,20.30
2018-08-20T12:59:00.874Z,20.30
2018-08-20T13:01:29.646Z,20.30
2018-08-20T13:03:58.419Z,20.40
2018-08-20T13:06:27.252Z,20.30
2018-08-20T13:08:55.932Z,20.30
2018-08-20T13:11:24.648Z,20.20
2018-08-20T13:13:53.362Z,20.10
2018-08-20T13:16:22.196Z,20.10
2018-08-20T13:18:50.881Z,20.10
2018-08-20T13:21:19.606Z,20.20
2018-08-20T13:23:48.311Z,20.20
2018-08-20T13:26:17.165Z,20.10
2018-08-20T13:28:45.874Z,20.10
2018-08-20T13:31:14.717Z,20.10
2018-08-20T13:33:43.654Z,20.20
2018-08-20T13:36:12.384Z,20.20
2018-08-20T13:38:41.071Z,20.20
2018-08-20T13:41:09.812Z,20.20
2018-08-20T13:43:38.590Z,20.20
2018-08-20T13:46:07.422Z,20.20
2018-08-20T13:48:36.324Z,20.10
2018-08-20T13:51:05.022Z,20.10
2018-08-20T13:53:33.731Z,20.10
2018-08-20T13:56:02.439Z,20.20
2018-08-20T13:58:31.358Z,20.20
2018-08-20T14:01:00.292Z,20.20
2018-08-20T14:03:29.072Z,20.30
2018-08-20T14:05:57.843Z,20.50
2018-08-20T14:08:26.613Z,20.50
2018-08-20T14:10:55.338Z,20.60
2018-08-20T14:13:24.042Z,20.50
2018-08-20T14:15:52.959Z,20.40
2018-08-20T14:18:21.674Z,20.40
2018-08-20T14:21:01.463Z,20.50
2018-08-20T14:23:30.158Z,20.50
2018-08-20T14:25:58.865Z,20.40
2018-08-20T14:28:27.902Z,20.40
2018-08-20T14:30:56.614Z,20.30
2018-08-20T14:33:25.586Z,20.30
2018-08-20T14:35:54.440Z,20.40
2018-08-20T14:38:23.133Z,20.40
2018-08-20T14:40:51.831Z,20.50
2018-08-20T14:43:20.613Z,20.50
2018-08-20T14:45:54.587Z,20.70
2018-08-20T14:48:23.574Z,20.70
2018-08-20T14:50:52.478Z,20.80
2018-08-20T14:53:21.360Z,20.80
2018-08-20T14:55:50.116Z,20.70
2018-08-20T14:58:18.979Z,20.70
2018-08-20T15:00:47.831Z,20.80
2018-08-20T15:03:16.756Z,20.70
2018-08-20T15:05:45.613Z,20.70
2018-08-20T15:08:14.301Z,20.70
2018-08-20T15:10:43.234Z,20.70
2018-08-20T15:13:12.466Z,20.60
2018-08-20T15:15:41.507Z,20.60
2018-08-20T15:18:10.270Z,20.70
2018-08-20T15:20:39.152Z,20.70
2018-08-20T15:23:07.860Z,20.60
2018-08-20T15:25:36.893Z,20.70
2018-08-20T15:28:05.692Z,20.60
2018-08-20T15:30:34.410Z,20.60
2018-08-20T15:33:03.117Z,20.60
2018-08-20T15:35:31.842Z,20.70
2018-08-20T15:38:00.622Z,20.70
2018-08-20T15:40:29.282Z,20.70
2018-08-20T15:42:58.027Z,20.70
2018-08-20T15:45:26.941Z,20.70
2018-08-20T15:47:55.738Z,20.70
2018-08-20T15:50:24.493Z,20.70
2018-08-20T15:52:53.327Z,20.70
2018-08-20T15:55:28.511Z,20.70
2018-08-20T15:57:57.151Z,20.70
2018-08-20T16:00:25.940Z,20.60
2018-08-20T16:02:54.631Z,20.60
2018-08-20T16:05:23.630Z,20.60
2018-08-20T16:07:52.377Z,20.50
2018-08-20T16:10:21.108Z,20.50
2018-08-20T16:12:49.914Z,20.50
2018-08-20T16:15:18.642Z,20.40
2018-08-20T16:17:47.373Z,20.40
2018-08-20T16:20:16.056Z,20.30
2018-08-20T16:22:44.722Z,20.30
2018-08-20T16:25:13.474Z,20.30
2018-08-20T16:27:42.104Z,20.30
2018-08-20T16:30:12.892Z,20.30
2018-08-20T16:32:41.626Z,20.30
2018-08-20T16:35:12.344Z,20.30
2018-08-20T16:37:41.834Z,20.30
2018-08-20T16:40:10.551Z,20.30
2018-08-20T16:42:39.309Z,20.30
2018-08-20T16:45:09.152Z,20.30
2018-08-20T16:47:38.184Z,20.30
2018-08-20T16:50:08.806Z,20.30
2018-08-20T16:52:37.569Z,20.30
2018-08-20T16:55:07.317Z,20.30
2018-08-20T16:57:36.006Z,20.40
2018-08-20T17:00:07.225Z,20.40
2018-08-20T17:02:38.864Z,20.50
2018-08-20T17:05:08.602Z,20.60
2018-08-20T17:07:37.358Z,20.60
2018-08-20T17:10:07.440Z,20.60
2018-08-20T17:12:36.158Z,20.70
2018-08-20T17:15:08.354Z,20.70
2018-08-20T17:17:37.660Z,20.70
2018-08-20T17:20:07.125Z,20.70
2018-08-20T17:22:35.850Z,20.60
2018-08-20T17:25:05.320Z,20.60
2018-08-20T17:27:34.187Z,20.50
2018-08-20T17:30:02.966Z,20.50
2018-08-20T17:32:31.856Z,20.50
2018-08-20T17:35:00.552Z,20.50
2018-08-20T17:37:29.308Z,20.50
2018-08-20T17:40:00.470Z,20.50
2018-08-20T17:42:30.387Z,20.40
2018-08-20T17:44:59.864Z,20.40
2018-08-20T17:47:29.193Z,20.40
2018-08-20T17:49:58.899Z,20.30
2018-08-20T17:52:30.175Z,20.20
2018-08-20T17:55:01.978Z,20.20
2018-08-20T17:57:30.806Z,20.10
2018-08-20T18:01:06.028Z,20.10
2018-08-20T18:03:36.042Z,20.00
2018-08-20T18:06:07.184Z,20.00
2018-08-20T18:08:36.126Z,20.00
2018-08-20T18:11:05.880Z,19.90
2018-08-20T18:13:39.149Z,19.90
2018-08-20T18:16:09.365Z,19.80
2018-08-20T18:18:38.813Z,19.80
2018-08-20T18:21:07.630Z,19.80
2018-08-20T18:23:36.897Z,19.80
2018-08-20T18:26:05.725Z,19.80
2018-08-20T18:28:48.810Z,19.70
2018-08-20T18:31:22.101Z,19.70
2018-08-20T18:33:50.934Z,19.70
2018-08-20T18:36:21.880Z,19.70
2018-08-20T18:38:53.324Z,19.60
2018-08-20T18:41:31.800Z,19.60
2018-08-20T18:44:00.534Z,19.70
2018-08-20T18:46:29.329Z,19.60
2018-08-20T18:48:57.980Z,19.60
2018-08-20T18:51:26.736Z,19.60
2018-08-20T18:53:55.955Z,19.60
2018-08-20T18:56:24.676Z,19.60
2018-08-20T18:58:53.435Z,19.60
2018-08-20T19:01:22.215Z,19.50
2018-08-20T19:03:50.918Z,19.50
2018-08-20T19:06:20.558Z,19.50
2018-08-20T19:08:49.372Z,19.50
2018-08-20T19:11:18.140Z,19.50
2018-08-20T19:13:46.920Z,19.60
2018-08-20T19:16:26.924Z,19.60
2018-08-20T19:18:55.682Z,19.60
2018-08-20T19:21:26.594Z,19.50
2018-08-20T19:23:56.732Z,19.50
2018-08-20T19:26:26.406Z,19.60
2018-08-20T19:28:55.114Z,19.50
2018-08-20T19:31:23.847Z,19.50
2018-08-20T19:33:52.720Z,19.50
2018-08-20T19:36:23.043Z,19.50
2018-08-20T19:38:52.091Z,19.50
2018-08-20T19:41:20.843Z,19.40
2018-08-20T19:43:51.001Z,19.40
2018-08-20T19:46:28.827Z,19.40
2018-08-20T19:49:03.155Z,19.40
2018-08-20T19:51:34.337Z,19.30
2018-08-20T19:54:03.035Z,19.30
2018-08-20T19:56:32.032Z,19.30
2018-08-20T19:59:00.741Z,19.30
2018-08-20T20:01:29.470Z,19.20
2018-08-20T20:03:58.307Z,19.20
2018-08-20T20:06:28.312Z,19.20
2018-08-20T20:08:57.018Z,19.20
2018-08-20T20:11:30.734Z,19.20
2018-08-20T20:14:01.603Z,19.10
2018-08-20T20:16:37.813Z,19.10
2018-08-20T20:19:06.937Z,19.10
2018-08-20T20:21:36.262Z,19.10
2018-08-20T20:24:05.109Z,19.10
2018-08-20T20:26:33.888Z,19.00
2018-08-20T20:29:04.428Z,19.00
2018-08-20T20:31:33.293Z,19.00
2018-08-20T20:34:02.249Z,19.00
2018-08-20T20:36:31.988Z,19.00
2018-08-20T20:39:01.157Z,19.00
2018-08-20T20:41:29.873Z,19.00
2018-08-20T20:43:58.550Z,19.00
2018-08-20T20:46:27.257Z,18.90
2018-08-20T20:48:56.136Z,18.90
2018-08-20T20:51:24.878Z,18.90
2018-08-20T20:53:53.561Z,18.90
2018-08-20T20:56:22.250Z,18.90
2018-08-20T20:58:51.022Z,18.80
2018-08-20T21:01:19.724Z,18.80
2018-08-20T21:03:48.512Z,18.80
2018-08-20T21:06:17.440Z,18.70
2018-08-20T21:08:49.061Z,18.70
2018-08-20T21:11:19.471Z,18.70
2018-08-20T21:13:48.924Z,18.70
2018-08-20T21:16:21.320Z,18.70
2018-08-20T21:18:53.117Z,18.70
2018-08-20T21:21:22.543Z,18.70
2018-08-20T21:23:51.243Z,18.60
2018-08-20T21:26:20.152Z,18.70
2018-08-20T21:28:49.995Z,18.60
2018-08-20T21:31:20.216Z,18.60
2018-08-20T21:33:52.935Z,18.60
2018-08-20T21:36:21.636Z,18.60
2018-08-20T21:38:50.722Z,18.60
2018-08-20T21:41:27.559Z,18.60
2018-08-20T21:43:56.213Z,18.60
2018-08-20T21:46:24.963Z,18.60
2018-08-20T21:48:53.746Z,18.60
2018-08-20T21:51:27.643Z,18.60
2018-08-20T21:53:56.426Z,18.60
2018-08-20T21:56:26.137Z,18.60
2018-08-20T21:58:54.848Z,18.60
2018-08-20T22:01:23.681Z,18.50
2018-08-20T22:03:52.435Z,18.50
2018-08-20T22:06:21.189Z,18.50
2018-08-20T22:08:49.899Z,18.50
2018-08-20T22:11:18.621Z,18.50
2018-08-20T22:13:47.322Z,18.40
2018-08-20T22:16:19.627Z,18.40
2018-08-20T22:18:53.459Z,18.30
2018-08-20T22:21:22.213Z,18.30
2018-08-20T22:23:50.918Z,18.30
2018-08-20T22:26:20.914Z,18.30
2018-08-20T22:28:51.469Z,18.20
2018-08-20T22:31:20.567Z,18.20
2018-08-20T22:33:56.661Z,18.20
2018-08-20T22:36:25.979Z,18.20
2018-08-20T22:38:58.949Z,18.20
2018-08-20T22:41:28.837Z,18.30
2018-08-20T22:43:57.673Z,18.30
2018-08-20T22:46:26.838Z,18.20
2018-08-20T22:48:57.407Z,18.20
2018-08-20T22:51:27.272Z,18.20
2018-08-20T22:53:57.345Z,18.20
2018-08-20T22:56:29.609Z,18.20
2018-08-20T22:59:00.989Z,18.20
2018-08-20T23:01:29.777Z,18.20
2018-08-20T23:03:58.570Z,18.20
2018-08-20T23:06:27.297Z,18.20
2018-08-20T23:08:56.118Z,18.20
2018-08-20T23:11:38.005Z,18.20
2018-08-20T23:14:08.493Z,18.20
2018-08-20T23:16:37.593Z,18.20
2018-08-20T23:19:06.413Z,18.20
2018-08-20T23:21:39.426Z,18.20
2018-08-20T23:24:08.359Z,18.10
2018-08-20T23:26:37.020Z,18.20
2018-08-20T23:29:06.050Z,18.10
2018-08-20T23:31:35.049Z,18.10
2018-08-20T23:34:04.320Z,18.10
2018-08-20T23:36:32.999Z,18.10
2018-08-20T23:39:01.689Z,18.10
2018-08-20T23:41:30.435Z,18.20
2018-08-20T23:43:59.187Z,18.20
2018-08-20T23:46:32.651Z,18.20
2018-08-20T23:49:02.175Z,18.20
2018-08-20T23:51:31.010Z,18.10
2018-08-20T23:53:59.897Z,18.20
2018-08-20T23:56:28.587Z,18.20
2018-08-20T23:58:57.533Z,18.20
